sensor_id;sensor_type;location;lat;lon;timestamp;temperature;humidity
54409;DHT22;40315;48.620;9.828;2023-04-29T00:01:29;11.30;99.90
54409;DHT22;40315;48.620;9.828;2023-04-29T00:03:56;11.30;99.90
54409;DHT22;40315;48.620;9.828;2023-04-29T00:06:23;11.30;99.90
54409;DHT22;40315;48.620;9.828;2023-04-29T00:08:52;11.20;99.90
54409;DHT22;40315;48.620;9.828;2023-04-29T00:11:19;11.20;99.90
54409;DHT22;40315;48.620;9.828;2023-04-29T00:13:48;11.20;99.90
54409;DHT22;40315;48.620;9.828;2023-04-29T00:16:15;11.20;99.90
54409;DHT22;40315;48.620;9.828;2023-04-29T00:18:42;11.20;99.90
54409;DHT22;40315;48.620;9.828;2023-04-29T00:21:09;11.10;99.90
54409;DHT22;40315;48.620;9.828;2023-04-29T00:23:39;11.00;99.90
54409;DHT22;40315;48.620;9.828;2023-04-29T00:26:06;11.10;99.90
54409;DHT22;40315;48.620;9.828;2023-04-29T00:28:35;11.10;99.90
54409;DHT22;40315;48.620;9.828;2023-04-29T00:31:03;11.10;99.90
54409;DHT22;40315;48.620;9.828;2023-04-29T00:33:30;11.00;99.90
54409;DHT22;40315;48.620;9.828;2023-04-29T00:35:57;11.00;99.90
54409;DHT22;40315;48.620;9.828;2023-04-29T00:38:27;10.90;99.90
54409;DHT22;40315;48.620;9.828;2023-04-29T00:40:54;10.90;99.90
54409;DHT22;40315;48.620;9.828;2023-04-29T00:43:21;10.80;99.90
54409;DHT22;40315;48.620;9.828;2023-04-29T00:45:49;11.50;99.90
54409;DHT22;40315;48.620;9.828;2023-04-29T00:48:17;10.80;99.90
54409;DHT22;40315;48.620;9.828;2023-04-29T00:50:44;10.90;99.90
54409;DHT22;40315;48.620;9.828;2023-04-29T00:53:11;10.70;99.90
54409;DHT22;40315;48.620;9.828;2023-04-29T00:55:40;10.70;99.90
54409;DHT22;40315;48.620;9.828;2023-04-29T00:58:10;10.70;99.90
54409;DHT22;40315;48.620;9.828;2023-04-29T01:03:13;10.60;99.90
54409;DHT22;40315;48.620;9.828;2023-04-29T01:05:44;10.60;99.90
54409;DHT22;40315;48.620;9.828;2023-04-29T01:08:23;10.60;99.90
54409;DHT22;40315;48.620;9.828;2023-04-29T01:10:55;10.60;99.90
54409;DHT22;40315;48.620;9.828;2023-04-29T01:13:29;10.60;99.90
54409;DHT22;40315;48.620;9.828;2023-04-29T01:16:01;10.60;99.90
54409;DHT22;40315;48.620;9.828;2023-04-29T01:18:32;10.60;99.90
54409;DHT22;40315;48.620;9.828;2023-04-29T01:21:03;10.60;99.90
54409;DHT22;40315;48.620;9.828;2023-04-29T01:23:32;10.50;99.90
54409;DHT22;40315;48.620;9.828;2023-04-29T01:25:59;10.50;99.90
54409;DHT22;40315;48.620;9.828;2023-04-29T01:28:52;10.60;99.90
54409;DHT22;40315;48.620;9.828;2023-04-29T01:31:27;10.50;99.90
54409;DHT22;40315;48.620;9.828;2023-04-29T01:34:04;10.50;99.90
54409;DHT22;40315;48.620;9.828;2023-04-29T01:36:41;10.50;99.90
54409;DHT22;40315;48.620;9.828;2023-04-29T01:39:19;10.50;99.90
54409;DHT22;40315;48.620;9.828;2023-04-29T01:42:04;10.50;99.90
54409;DHT22;40315;48.620;9.828;2023-04-29T01:44:33;10.50;99.90
54409;DHT22;40315;48.620;9.828;2023-04-29T06:29:41;11.90;99.90
54409;DHT22;40315;48.620;9.828;2023-04-29T06:32:09;11.90;99.90
54409;DHT22;40315;48.620;9.828;2023-04-29T06:34:36;11.90;99.90
54409;DHT22;40315;48.620;9.828;2023-04-29T06:37:23;12.00;99.90
54409;DHT22;40315;48.620;9.828;2023-04-29T06:40:26;11.90;99.90
54409;DHT22;40315;48.620;9.828;2023-04-29T06:43:25;12.10;99.90
54409;DHT22;40315;48.620;9.828;2023-04-29T06:46:12;11.80;99.90
54409;DHT22;40315;48.620;9.828;2023-04-29T06:48:59;11.90;99.90
54409;DHT22;40315;48.620;9.828;2023-04-29T06:51:26;12.00;99.90
54409;DHT22;40315;48.620;9.828;2023-04-29T06:53:57;12.10;99.90
54409;DHT22;40315;48.620;9.828;2023-04-29T06:56:24;12.20;99.90
54409;DHT22;40315;48.620;9.828;2023-04-29T06:58:53;12.20;99.90
54409;DHT22;40315;48.620;9.828;2023-04-29T07:01:24;12.10;99.90
54409;DHT22;40315;48.620;9.828;2023-04-29T07:03:53;12.20;99.90
54409;DHT22;40315;48.620;9.828;2023-04-29T07:06:21;12.30;99.90
54409;DHT22;40315;48.620;9.828;2023-04-29T07:08:48;12.20;99.90
54409;DHT22;40315;48.620;9.828;2023-04-29T07:11:16;12.30;99.90
54409;DHT22;40315;48.620;9.828;2023-04-29T07:13:43;12.40;99.90
54409;DHT22;40315;48.620;9.828;2023-04-29T07:16:14;12.40;99.90
54409;DHT22;40315;48.620;9.828;2023-04-29T07:18:46;12.40;99.90
54409;DHT22;40315;48.620;9.828;2023-04-29T07:21:15;12.30;99.90
54409;DHT22;40315;48.620;9.828;2023-04-29T07:23:44;12.40;99.90
54409;DHT22;40315;48.620;9.828;2023-04-29T07:26:13;12.40;99.90
54409;DHT22;40315;48.620;9.828;2023-04-29T07:28:43;12.50;99.90
54409;DHT22;40315;48.620;9.828;2023-04-29T07:31:10;12.50;99.90
54409;DHT22;40315;48.620;9.828;2023-04-29T07:33:41;12.60;99.90
54409;DHT22;40315;48.620;9.828;2023-04-29T07:36:11;12.70;99.90
54409;DHT22;40315;48.620;9.828;2023-04-29T07:38:40;12.60;99.90
54409;DHT22;40315;48.620;9.828;2023-04-29T07:41:07;12.60;99.90
54409;DHT22;40315;48.620;9.828;2023-04-29T07:43:36;12.70;99.90
54409;DHT22;40315;48.620;9.828;2023-04-29T07:46:04;12.70;99.90
54409;DHT22;40315;48.620;9.828;2023-04-29T07:48:36;12.70;99.90
54409;DHT22;40315;48.620;9.828;2023-04-29T07:51:11;12.70;99.90
54409;DHT22;40315;48.620;9.828;2023-04-29T07:53:42;12.50;99.90
54409;DHT22;40315;48.620;9.828;2023-04-29T07:56:09;12.30;99.90
54409;DHT22;40315;48.620;9.828;2023-04-29T07:58:37;12.60;99.90
54409;DHT22;40315;48.620;9.828;2023-04-29T08:01:05;12.80;99.90
54409;DHT22;40315;48.620;9.828;2023-04-29T08:03:32;12.90;99.90
54409;DHT22;40315;48.620;9.828;2023-04-29T08:06:02;12.90;99.90
54409;DHT22;40315;48.620;9.828;2023-04-29T08:08:30;13.10;99.90
54409;DHT22;40315;48.620;9.828;2023-04-29T08:11:00;13.30;99.90
54409;DHT22;40315;48.620;9.828;2023-04-29T08:13:28;13.20;99.90
54409;DHT22;40315;48.620;9.828;2023-04-29T08:15:57;12.90;99.90
54409;DHT22;40315;48.620;9.828;2023-04-29T08:18:24;12.70;99.90
54409;DHT22;40315;48.620;9.828;2023-04-29T08:20:51;12.70;99.90
54409;DHT22;40315;48.620;9.828;2023-04-29T08:23:18;12.70;99.90
54409;DHT22;40315;48.620;9.828;2023-04-29T08:25:45;12.70;99.90
54409;DHT22;40315;48.620;9.828;2023-04-29T08:28:14;12.70;99.90
54409;DHT22;40315;48.620;9.828;2023-04-29T08:30:41;12.80;99.90
54409;DHT22;40315;48.620;9.828;2023-04-29T08:33:08;13.00;99.90
54409;DHT22;40315;48.620;9.828;2023-04-29T08:35:35;13.00;99.90
54409;DHT22;40315;48.620;9.828;2023-04-29T08:38:05;13.10;99.90
54409;DHT22;40315;48.620;9.828;2023-04-29T08:40:41;13.10;99.90
54409;DHT22;40315;48.620;9.828;2023-04-29T08:43:09;13.50;99.90
54409;DHT22;40315;48.620;9.828;2023-04-29T08:45:38;13.70;99.90
54409;DHT22;40315;48.620;9.828;2023-04-29T08:48:06;13.80;99.90
54409;DHT22;40315;48.620;9.828;2023-04-29T08:50:37;13.80;99.90
54409;DHT22;40315;48.620;9.828;2023-04-29T08:53:05;13.50;99.90
54409;DHT22;40315;48.620;9.828;2023-04-29T08:55:34;13.40;99.90
54409;DHT22;40315;48.620;9.828;2023-04-29T08:58:02;13.40;99.90
54409;DHT22;40315;48.620;9.828;2023-04-29T09:00:30;13.60;99.90
54409;DHT22;40315;48.620;9.828;2023-04-29T09:03:00;13.60;99.90
54409;DHT22;40315;48.620;9.828;2023-04-29T09:05:31;13.50;99.90
54409;DHT22;40315;48.620;9.828;2023-04-29T09:08:01;13.50;99.90
54409;DHT22;40315;48.620;9.828;2023-04-29T09:10:29;13.50;99.90
54409;DHT22;40315;48.620;9.828;2023-04-29T09:12:56;13.50;99.90
54409;DHT22;40315;48.620;9.828;2023-04-29T09:15:23;13.60;99.90
54409;DHT22;40315;48.620;9.828;2023-04-29T09:17:51;13.60;99.90
54409;DHT22;40315;48.620;9.828;2023-04-29T09:20:29;13.70;99.90
54409;DHT22;40315;48.620;9.828;2023-04-29T09:22:58;15.30;99.90
54409;DHT22;40315;48.620;9.828;2023-04-29T09:25:26;13.90;99.90
54409;DHT22;40315;48.620;9.828;2023-04-29T09:27:54;14.00;99.90
54409;DHT22;40315;48.620;9.828;2023-04-29T09:30:21;14.00;99.90
54409;DHT22;40315;48.620;9.828;2023-04-29T09:33:05;13.90;99.90
54409;DHT22;40315;48.620;9.828;2023-04-29T09:35:34;14.10;99.90
54409;DHT22;40315;48.620;9.828;2023-04-29T09:38:09;14.20;99.90
54409;DHT22;40315;48.620;9.828;2023-04-29T09:40:37;14.50;99.90
54409;DHT22;40315;48.620;9.828;2023-04-29T09:43:11;14.90;99.90
54409;DHT22;40315;48.620;9.828;2023-04-29T09:45:40;15.20;99.90
54409;DHT22;40315;48.620;9.828;2023-04-29T09:48:09;15.00;99.90
54409;DHT22;40315;48.620;9.828;2023-04-29T09:50:39;14.60;99.90
54409;DHT22;40315;48.620;9.828;2023-04-29T09:53:08;14.30;99.90
54409;DHT22;40315;48.620;9.828;2023-04-29T09:55:35;14.40;99.90
54409;DHT22;40315;48.620;9.828;2023-04-29T09:58:03;14.50;99.90
54409;DHT22;40315;48.620;9.828;2023-04-29T10:00:32;14.60;99.90
54409;DHT22;40315;48.620;9.828;2023-04-29T10:03:00;14.50;99.90
54409;DHT22;40315;48.620;9.828;2023-04-29T10:05:28;14.60;99.90
54409;DHT22;40315;48.620;9.828;2023-04-29T10:07:58;14.90;99.90
54409;DHT22;40315;48.620;9.828;2023-04-29T10:10:27;14.90;99.90
54409;DHT22;40315;48.620;9.828;2023-04-29T10:12:57;14.70;99.90
54409;DHT22;40315;48.620;9.828;2023-04-29T10:15:31;14.90;99.90
54409;DHT22;40315;48.620;9.828;2023-04-29T10:18:08;14.90;99.90
54409;DHT22;40315;48.620;9.828;2023-04-29T10:20:40;14.90;99.90
54409;DHT22;40315;48.620;9.828;2023-04-29T10:23:15;15.00;99.90
54409;DHT22;40315;48.620;9.828;2023-04-29T10:25:43;15.00;99.90
54409;DHT22;40315;48.620;9.828;2023-04-29T10:28:14;15.10;99.90
54409;DHT22;40315;48.620;9.828;2023-04-29T10:30:43;15.10;99.90
54409;DHT22;40315;48.620;9.828;2023-04-29T10:33:11;15.20;99.90
54409;DHT22;40315;48.620;9.828;2023-04-29T10:35:42;15.20;99.90
54409;DHT22;40315;48.620;9.828;2023-04-29T10:38:19;14.80;99.90
54409;DHT22;40315;48.620;9.828;2023-04-29T10:40:49;14.80;99.90
54409;DHT22;40315;48.620;9.828;2023-04-29T10:43:22;14.80;99.90
54409;DHT22;40315;48.620;9.828;2023-04-29T10:45:49;14.60;99.90
54409;DHT22;40315;48.620;9.828;2023-04-29T10:48:16;14.60;99.90
54409;DHT22;40315;48.620;9.828;2023-04-29T10:51:02;14.70;99.90
54409;DHT22;40315;48.620;9.828;2023-04-29T10:53:31;14.80;99.90
54409;DHT22;40315;48.620;9.828;2023-04-29T10:56:07;15.00;99.90
54409;DHT22;40315;48.620;9.828;2023-04-29T10:58:37;15.10;99.90
54409;DHT22;40315;48.620;9.828;2023-04-29T11:01:05;15.20;99.90
54409;DHT22;40315;48.620;9.828;2023-04-29T11:03:52;15.10;99.90
54409;DHT22;40315;48.620;9.828;2023-04-29T11:06:24;15.20;99.90
54409;DHT22;40315;48.620;9.828;2023-04-29T11:09:03;15.10;99.90
54409;DHT22;40315;48.620;9.828;2023-04-29T11:11:44;14.90;99.90
54409;DHT22;40315;48.620;9.828;2023-04-29T11:14:13;14.90;99.90
54409;DHT22;40315;48.620;9.828;2023-04-29T11:16:47;14.80;99.90
54409;DHT22;40315;48.620;9.828;2023-04-29T11:19:15;14.90;99.90
54409;DHT22;40315;48.620;9.828;2023-04-29T11:21:44;15.20;99.90
54409;DHT22;40315;48.620;9.828;2023-04-29T11:24:14;15.30;99.90
54409;DHT22;40315;48.620;9.828;2023-04-29T11:26:42;15.50;99.90
54409;DHT22;40315;48.620;9.828;2023-04-29T11:29:11;15.60;99.90
54409;DHT22;40315;48.620;9.828;2023-04-29T11:31:40;15.70;99.90
54409;DHT22;40315;48.620;9.828;2023-04-29T11:34:07;15.80;99.90
54409;DHT22;40315;48.620;9.828;2023-04-29T11:36:34;15.60;99.90
54409;DHT22;40315;48.620;9.828;2023-04-29T11:39:03;15.40;99.90
54409;DHT22;40315;48.620;9.828;2023-04-29T11:41:31;15.30;99.90
54409;DHT22;40315;48.620;9.828;2023-04-29T11:44:00;15.50;99.90
54409;DHT22;40315;48.620;9.828;2023-04-29T11:46:32;15.10;99.90
54409;DHT22;40315;48.620;9.828;2023-04-29T11:49:02;14.90;99.90
54409;DHT22;40315;48.620;9.828;2023-04-29T11:51:29;15.00;99.90
54409;DHT22;40315;48.620;9.828;2023-04-29T11:53:57;15.00;99.90
54409;DHT22;40315;48.620;9.828;2023-04-29T11:56:24;15.20;99.90
54409;DHT22;40315;48.620;9.828;2023-04-29T11:58:57;15.00;99.90
54409;DHT22;40315;48.620;9.828;2023-04-29T12:01:25;14.50;99.90
54409;DHT22;40315;48.620;9.828;2023-04-29T12:03:56;14.50;99.90
54409;DHT22;40315;48.620;9.828;2023-04-29T12:06:27;14.50;99.90
54409;DHT22;40315;48.620;9.828;2023-04-29T12:08:58;14.70;99.90
54409;DHT22;40315;48.620;9.828;2023-04-29T12:11:26;14.80;99.90
54409;DHT22;40315;48.620;9.828;2023-04-29T12:13:53;14.60;99.90
54409;DHT22;40315;48.620;9.828;2023-04-29T12:16:22;14.70;99.90
54409;DHT22;40315;48.620;9.828;2023-04-29T12:18:51;14.90;99.90
54409;DHT22;40315;48.620;9.828;2023-04-29T12:21:18;15.20;99.90
54409;DHT22;40315;48.620;9.828;2023-04-29T12:23:45;15.20;99.90
54409;DHT22;40315;48.620;9.828;2023-04-29T12:26:13;15.30;99.90
54409;DHT22;40315;48.620;9.828;2023-04-29T12:28:41;15.30;99.90
54409;DHT22;40315;48.620;9.828;2023-04-29T12:31:13;14.70;99.90
54409;DHT22;40315;48.620;9.828;2023-04-29T12:33:43;14.50;99.90
54409;DHT22;40315;48.620;9.828;2023-04-29T12:36:15;14.60;99.90
54409;DHT22;40315;48.620;9.828;2023-04-29T12:38:44;14.70;99.90
54409;DHT22;40315;48.620;9.828;2023-04-29T12:41:11;14.70;99.90
54409;DHT22;40315;48.620;9.828;2023-04-29T12:43:43;14.80;99.90
54409;DHT22;40315;48.620;9.828;2023-04-29T12:46:10;15.00;99.90
54409;DHT22;40315;48.620;9.828;2023-04-29T12:48:39;15.10;99.90
54409;DHT22;40315;48.620;9.828;2023-04-29T12:51:10;15.60;99.90
54409;DHT22;40315;48.620;9.828;2023-04-29T12:53:39;14.90;99.90
54409;DHT22;40315;48.620;9.828;2023-04-29T12:56:07;14.80;99.90
54409;DHT22;40315;48.620;9.828;2023-04-29T12:58:34;14.70;99.90
54409;DHT22;40315;48.620;9.828;2023-04-29T13:01:01;14.70;99.90
54409;DHT22;40315;48.620;9.828;2023-04-29T13:03:30;14.70;99.90
54409;DHT22;40315;48.620;9.828;2023-04-29T13:05:58;14.80;99.90
54409;DHT22;40315;48.620;9.828;2023-04-29T13:08:27;14.90;99.90
54409;DHT22;40315;48.620;9.828;2023-04-29T13:10:54;14.80;99.90
54409;DHT22;40315;48.620;9.828;2023-04-29T13:13:21;14.60;99.90
54409;DHT22;40315;48.620;9.828;2023-04-29T13:15:48;14.70;99.90
54409;DHT22;40315;48.620;9.828;2023-04-29T13:18:15;14.80;99.90
54409;DHT22;40315;48.620;9.828;2023-04-29T13:20:43;14.90;99.90
54409;DHT22;40315;48.620;9.828;2023-04-29T13:23:10;14.90;99.90
54409;DHT22;40315;48.620;9.828;2023-04-29T13:25:39;14.90;99.90
54409;DHT22;40315;48.620;9.828;2023-04-29T13:28:06;14.90;99.90
54409;DHT22;40315;48.620;9.828;2023-04-29T13:30:33;15.10;99.90
54409;DHT22;40315;48.620;9.828;2023-04-29T13:33:00;15.00;99.90
54409;DHT22;40315;48.620;9.828;2023-04-29T13:35:27;14.90;99.90
54409;DHT22;40315;48.620;9.828;2023-04-29T13:37:54;15.00;99.90
54409;DHT22;40315;48.620;9.828;2023-04-29T13:40:24;15.10;99.90
54409;DHT22;40315;48.620;9.828;2023-04-29T13:42:53;15.20;99.90
54409;DHT22;40315;48.620;9.828;2023-04-29T13:45:20;15.30;99.90
54409;DHT22;40315;48.620;9.828;2023-04-29T13:50:15;15.20;99.90
54409;DHT22;40315;48.620;9.828;2023-04-29T13:52:42;15.10;99.90
54409;DHT22;40315;48.620;9.828;2023-04-29T13:55:09;15.20;99.90
54409;DHT22;40315;48.620;9.828;2023-04-29T13:57:37;15.20;99.90
54409;DHT22;40315;48.620;9.828;2023-04-29T14:00:07;15.10;99.90
54409;DHT22;40315;48.620;9.828;2023-04-29T14:02:37;15.20;99.90
54409;DHT22;40315;48.620;9.828;2023-04-29T14:05:04;15.30;99.90
54409;DHT22;40315;48.620;9.828;2023-04-29T14:07:32;15.30;99.90
54409;DHT22;40315;48.620;9.828;2023-04-29T14:09:59;15.00;99.90
54409;DHT22;40315;48.620;9.828;2023-04-29T14:12:26;15.20;99.90
54409;DHT22;40315;48.620;9.828;2023-04-29T14:14:53;15.20;99.90
54409;DHT22;40315;48.620;9.828;2023-04-29T14:17:22;15.40;99.90
54409;DHT22;40315;48.620;9.828;2023-04-29T14:19:49;15.40;99.90
54409;DHT22;40315;48.620;9.828;2023-04-29T14:22:18;15.40;99.90
54409;DHT22;40315;48.620;9.828;2023-04-29T14:24:46;15.40;99.90
54409;DHT22;40315;48.620;9.828;2023-04-29T14:27:13;15.30;99.90
54409;DHT22;40315;48.620;9.828;2023-04-29T14:29:40;15.10;99.90
54409;DHT22;40315;48.620;9.828;2023-04-29T14:32:07;15.10;99.90
54409;DHT22;40315;48.620;9.828;2023-04-29T14:34:38;15.20;99.90
54409;DHT22;40315;48.620;9.828;2023-04-29T14:37:07;15.10;99.90
54409;DHT22;40315;48.620;9.828;2023-04-29T14:39:35;15.00;99.90
54409;DHT22;40315;48.620;9.828;2023-04-29T14:42:02;14.00;99.90
54409;DHT22;40315;48.620;9.828;2023-04-29T14:44:30;17.30;99.90
54409;DHT22;40315;48.620;9.828;2023-04-29T14:46:57;14.80;99.90
54409;DHT22;40315;48.620;9.828;2023-04-29T14:51:52;15.00;99.90
54409;DHT22;40315;48.620;9.828;2023-04-29T14:54:20;15.10;99.90
54409;DHT22;40315;48.620;9.828;2023-04-29T14:56:47;15.30;99.90
54409;DHT22;40315;48.620;9.828;2023-04-29T14:59:14;15.20;99.90
54409;DHT22;40315;48.620;9.828;2023-04-29T15:01:41;15.00;99.90
54409;DHT22;40315;48.620;9.828;2023-04-29T15:04:08;15.00;99.90
54409;DHT22;40315;48.620;9.828;2023-04-29T15:06:37;14.90;99.90
54409;DHT22;40315;48.620;9.828;2023-04-29T15:11:34;14.60;99.90
54409;DHT22;40315;48.620;9.828;2023-04-29T15:14:01;17.10;99.90
54409;DHT22;40315;48.620;9.828;2023-04-29T15:16:28;14.40;99.90
54409;DHT22;40315;48.620;9.828;2023-04-29T15:18:56;14.40;99.90
54409;DHT22;40315;48.620;9.828;2023-04-29T15:21:24;14.50;99.90
54409;DHT22;40315;48.620;9.828;2023-04-29T15:26:20;14.40;99.90
54409;DHT22;40315;48.620;9.828;2023-04-29T15:28:47;14.40;99.90
54409;DHT22;40315;48.620;9.828;2023-04-29T15:31:15;13.50;99.90
54409;DHT22;40315;48.620;9.828;2023-04-29T15:36:09;14.40;99.90
54409;DHT22;40315;48.620;9.828;2023-04-29T15:38:36;14.30;99.90
54409;DHT22;40315;48.620;9.828;2023-04-29T15:41:04;14.30;99.90
54409;DHT22;40315;48.620;9.828;2023-04-29T15:43:35;14.30;99.90
54409;DHT22;40315;48.620;9.828;2023-04-29T15:46:04;14.20;99.90
54409;DHT22;40315;48.620;9.828;2023-04-29T15:48:35;14.20;99.90
54409;DHT22;40315;48.620;9.828;2023-04-29T15:51:03;14.30;99.90
54409;DHT22;40315;48.620;9.828;2023-04-29T15:53:30;14.30;99.90
54409;DHT22;40315;48.620;9.828;2023-04-29T15:55:58;14.40;99.90
54409;DHT22;40315;48.620;9.828;2023-04-29T15:58:25;14.40;99.90
54409;DHT22;40315;48.620;9.828;2023-04-29T16:00:54;14.30;99.90
54409;DHT22;40315;48.620;9.828;2023-04-29T16:03:21;14.30;99.90
54409;DHT22;40315;48.620;9.828;2023-04-29T16:05:48;14.30;99.90
54409;DHT22;40315;48.620;9.828;2023-04-29T16:08:16;14.10;99.90
54409;DHT22;40315;48.620;9.828;2023-04-29T16:10:45;14.10;99.90
54409;DHT22;40315;48.620;9.828;2023-04-29T16:13:14;14.20;99.90
54409;DHT22;40315;48.620;9.828;2023-04-29T16:15:41;14.10;99.90
54409;DHT22;40315;48.620;9.828;2023-04-29T16:18:10;14.00;99.90
54409;DHT22;40315;48.620;9.828;2023-04-29T16:20:38;14.00;99.90
54409;DHT22;40315;48.620;9.828;2023-04-29T16:23:05;16.20;99.90
54409;DHT22;40315;48.620;9.828;2023-04-29T16:25:32;13.90;99.90
54409;DHT22;40315;48.620;9.828;2023-04-29T16:27:59;13.80;99.90
54409;DHT22;40315;48.620;9.828;2023-04-29T16:32:54;13.70;99.90
54409;DHT22;40315;48.620;9.828;2023-04-29T16:35:23;13.70;99.90
54409;DHT22;40315;48.620;9.828;2023-04-29T16:37:53;13.70;99.90
54409;DHT22;40315;48.620;9.828;2023-04-29T16:40:21;13.60;99.90
54409;DHT22;40315;48.620;9.828;2023-04-29T16:42:49;13.60;99.90
54409;DHT22;40315;48.620;9.828;2023-04-29T16:45:17;13.60;99.90
54409;DHT22;40315;48.620;9.828;2023-04-29T16:47:44;13.60;99.90
54409;DHT22;40315;48.620;9.828;2023-04-29T16:50:14;13.60;99.90
54409;DHT22;40315;48.620;9.828;2023-04-29T16:52:43;13.50;99.90
54409;DHT22;40315;48.620;9.828;2023-04-29T16:55:11;13.50;99.90
54409;DHT22;40315;48.620;9.828;2023-04-29T16:57:38;13.40;99.90
54409;DHT22;40315;48.620;9.828;2023-04-29T17:00:09;13.30;99.90
54409;DHT22;40315;48.620;9.828;2023-04-29T17:02:37;13.30;99.90
54409;DHT22;40315;48.620;9.828;2023-04-29T17:05:08;13.20;99.90
54409;DHT22;40315;48.620;9.828;2023-04-29T17:07:35;13.20;99.90
54409;DHT22;40315;48.620;9.828;2023-04-29T17:10:05;13.20;99.90
54409;DHT22;40315;48.620;9.828;2023-04-29T17:12:32;13.10;99.90
54409;DHT22;40315;48.620;9.828;2023-04-29T17:14:59;13.10;99.90
54409;DHT22;40315;48.620;9.828;2023-04-29T17:17:26;13.10;99.90
54409;DHT22;40315;48.620;9.828;2023-04-29T17:19:54;13.20;99.90
54409;DHT22;40315;48.620;9.828;2023-04-29T17:22:21;13.20;99.90
54409;DHT22;40315;48.620;9.828;2023-04-29T17:24:49;13.20;99.90
54409;DHT22;40315;48.620;9.828;2023-04-29T17:27:17;13.20;99.90
54409;DHT22;40315;48.620;9.828;2023-04-29T17:29:44;13.20;99.90
54409;DHT22;40315;48.620;9.828;2023-04-29T17:32:11;13.20;99.90
54409;DHT22;40315;48.620;9.828;2023-04-29T17:34:42;13.00;99.90
54409;DHT22;40315;48.620;9.828;2023-04-29T17:37:09;12.80;99.90
54409;DHT22;40315;48.620;9.828;2023-04-29T17:39:36;12.80;99.90
54409;DHT22;40315;48.620;9.828;2023-04-29T17:42:03;12.70;99.90
54409;DHT22;40315;48.620;9.828;2023-04-29T17:44:32;12.70;99.90
54409;DHT22;40315;48.620;9.828;2023-04-29T17:47:01;12.60;99.90
54409;DHT22;40315;48.620;9.828;2023-04-29T17:49:30;12.60;99.90
54409;DHT22;40315;48.620;9.828;2023-04-29T17:51:57;12.60;99.90
54409;DHT22;40315;48.620;9.828;2023-04-29T17:54:30;12.60;99.90
54409;DHT22;40315;48.620;9.828;2023-04-29T17:56:57;12.50;99.90
54409;DHT22;40315;48.620;9.828;2023-04-29T17:59:26;12.40;99.90
54409;DHT22;40315;48.620;9.828;2023-04-29T18:01:56;12.40;99.90
54409;DHT22;40315;48.620;9.828;2023-04-29T18:04:24;12.40;99.90
54409;DHT22;40315;48.620;9.828;2023-04-29T18:06:51;12.40;99.90
54409;DHT22;40315;48.620;9.828;2023-04-29T18:09:18;12.40;99.90
54409;DHT22;40315;48.620;9.828;2023-04-29T18:11:45;12.40;99.90
54409;DHT22;40315;48.620;9.828;2023-04-29T18:14:12;12.40;99.90
54409;DHT22;40315;48.620;9.828;2023-04-29T18:16:39;12.40;99.90
54409;DHT22;40315;48.620;9.828;2023-04-29T18:19:08;12.30;99.90
54409;DHT22;40315;48.620;9.828;2023-04-29T18:21:35;12.30;99.90
54409;DHT22;40315;48.620;9.828;2023-04-29T18:24:05;12.30;99.90
54409;DHT22;40315;48.620;9.828;2023-04-29T18:26:32;12.20;99.90
54409;DHT22;40315;48.620;9.828;2023-04-29T18:28:59;12.30;99.90
54409;DHT22;40315;48.620;9.828;2023-04-29T18:31:29;12.20;99.90
54409;DHT22;40315;48.620;9.828;2023-04-29T18:33:56;12.20;99.90
54409;DHT22;40315;48.620;9.828;2023-04-29T18:36:24;12.20;99.90
54409;DHT22;40315;48.620;9.828;2023-04-29T18:38:55;12.20;99.90
54409;DHT22;40315;48.620;9.828;2023-04-29T18:41:22;12.20;99.90
54409;DHT22;40315;48.620;9.828;2023-04-29T18:43:49;12.10;99.90
54409;DHT22;40315;48.620;9.828;2023-04-29T18:46:16;12.20;99.90
54409;DHT22;40315;48.620;9.828;2023-04-29T18:48:43;12.10;99.90
54409;DHT22;40315;48.620;9.828;2023-04-29T18:51:13;12.10;99.90
54409;DHT22;40315;48.620;9.828;2023-04-29T18:53:44;12.10;99.90
54409;DHT22;40315;48.620;9.828;2023-04-29T18:56:11;12.10;99.90
54409;DHT22;40315;48.620;9.828;2023-04-29T18:58:38;12.10;99.90
54409;DHT22;40315;48.620;9.828;2023-04-29T19:01:05;12.00;99.90
54409;DHT22;40315;48.620;9.828;2023-04-29T19:03:34;12.10;99.90
54409;DHT22;40315;48.620;9.828;2023-04-29T19:06:04;12.10;99.90
54409;DHT22;40315;48.620;9.828;2023-04-29T19:08:31;12.10;99.90
54409;DHT22;40315;48.620;9.828;2023-04-29T19:11:00;12.00;99.90
54409;DHT22;40315;48.620;9.828;2023-04-29T19:13:28;12.00;99.90
54409;DHT22;40315;48.620;9.828;2023-04-29T19:15:55;12.00;99.90
54409;DHT22;40315;48.620;9.828;2023-04-29T19:18:22;12.00;99.90
54409;DHT22;40315;48.620;9.828;2023-04-29T19:20:53;12.10;99.90
54409;DHT22;40315;48.620;9.828;2023-04-29T19:23:20;12.00;99.90
54409;DHT22;40315;48.620;9.828;2023-04-29T19:25:48;12.00;99.90
54409;DHT22;40315;48.620;9.828;2023-04-29T19:28:16;11.90;99.90
54409;DHT22;40315;48.620;9.828;2023-04-29T19:30:43;11.90;99.90
54409;DHT22;40315;48.620;9.828;2023-04-29T19:33:11;11.90;99.90
54409;DHT22;40315;48.620;9.828;2023-04-29T19:35:38;11.90;99.90
54409;DHT22;40315;48.620;9.828;2023-04-29T19:38:07;12.00;99.90
54409;DHT22;40315;48.620;9.828;2023-04-29T19:40:35;12.00;99.90
54409;DHT22;40315;48.620;9.828;2023-04-29T19:43:02;11.90;99.90
54409;DHT22;40315;48.620;9.828;2023-04-29T19:45:31;12.00;99.90
54409;DHT22;40315;48.620;9.828;2023-04-29T19:48:01;11.90;99.90
54409;DHT22;40315;48.620;9.828;2023-04-29T19:50:28;11.90;99.90
54409;DHT22;40315;48.620;9.828;2023-04-29T19:52:55;11.80;99.90
54409;DHT22;40315;48.620;9.828;2023-04-29T19:55:22;11.80;99.90
54409;DHT22;40315;48.620;9.828;2023-04-29T19:57:50;12.00;99.90
54409;DHT22;40315;48.620;9.828;2023-04-29T20:00:18;12.10;99.90
54409;DHT22;40315;48.620;9.828;2023-04-29T20:02:46;12.20;99.90
54409;DHT22;40315;48.620;9.828;2023-04-29T20:05:19;12.20;99.90
54409;DHT22;40315;48.620;9.828;2023-04-29T20:07:46;12.30;99.90
54409;DHT22;40315;48.620;9.828;2023-04-29T20:10:13;12.30;99.90
54409;DHT22;40315;48.620;9.828;2023-04-29T20:12:40;12.30;99.90
54409;DHT22;40315;48.620;9.828;2023-04-29T20:15:08;12.10;99.90
54409;DHT22;40315;48.620;9.828;2023-04-29T20:17:38;12.00;99.90
54409;DHT22;40315;48.620;9.828;2023-04-29T20:20:08;11.90;99.90
54409;DHT22;40315;48.620;9.828;2023-04-29T20:22:35;11.90;99.90
54409;DHT22;40315;48.620;9.828;2023-04-29T20:25:04;12.00;99.90
54409;DHT22;40315;48.620;9.828;2023-04-29T20:27:34;12.10;99.90
54409;DHT22;40315;48.620;9.828;2023-04-29T20:30:05;12.20;99.90
54409;DHT22;40315;48.620;9.828;2023-04-29T20:32:33;12.20;99.90
54409;DHT22;40315;48.620;9.828;2023-04-29T20:35:00;12.20;99.90
54409;DHT22;40315;48.620;9.828;2023-04-29T20:37:29;12.30;99.90
54409;DHT22;40315;48.620;9.828;2023-04-29T20:39:56;12.20;99.90
54409;DHT22;40315;48.620;9.828;2023-04-29T20:42:26;12.20;99.90